Time;durP1;ratioP1;P1;durP2;ratioP2;P2;SDS_P1;SDS_P2;PMS_P1;PMS_P2;Temp;Humidity;BMP_temperature;BMP_pressure;BME280_temperature;BME280_humidity;BME280_pressure;Samples;Min_cycle;Max_cycle;Signal;HPM_P1;HPM_P2
2023/12/01 00:00:07;;;;;;;82.13;33.23;;;;;;;;;;5017952;28;20271;-78
2023/12/01 00:02:36;;;;;;;95.37;35.13;;;;;;;;;;5021210;28;20265;-80
2023/12/01 00:05:02;;;;;;;83.90;33.50;;;;;;;;;;5023207;28;20508;-78
2023/12/01 00:07:28;;;;;;;86.40;35.93;;;;;;;;;;5030627;28;20284;-78
2023/12/01 00:09:54;;;;;;;89.20;35.50;;;;;;;;;;5012066;28;20264;-78
2023/12/01 00:12:20;;;;;;;86.27;35.83;;;;;;;;;;5018743;28;20030;-77
2023/12/01 00:14:46;;;;;;;98.83;36.37;;;;;;;;;;5031770;28;20026;-79
2023/12/01 00:17:12;;;;;;;92.27;36.53;;;;;;;;;;5023377;28;20030;-78
2023/12/01 00:19:41;;;;;;;80.53;35.40;;;;;;;;;;5020252;28;20030;-79
2023/12/01 00:22:07;;;;;;;84.13;34.87;;;;;;;;;;5035920;28;20291;-78
2023/12/01 00:24:33;;;;;;;76.17;31.70;;;;;;;;;;5019497;28;20284;-78
2023/12/01 00:26:59;;;;;;;64.40;28.53;;;;;;;;;;5020033;28;20330;-78
2023/12/01 00:29:25;;;;;;;61.53;27.63;;;;;;;;;;5020523;28;20287;-79
2023/12/01 00:31:51;;;;;;;60.90;28.47;;;;;;;;;;5018458;28;20268;-78
2023/12/01 00:34:17;;;;;;;54.43;26.60;;;;;;;;;;5038817;28;20076;-78
2023/12/01 00:36:43;;;;;;;49.60;25.30;;;;;;;;;;5020218;28;20568;-77
2023/12/01 00:39:10;;;;;;;46.23;25.30;;;;;;;;;;5032140;28;20034;-77
2023/12/01 00:41:36;;;;;;;55.10;26.07;;;;;;;;;;5020397;28;20275;-78
2023/12/01 00:44:03;;;;;;;48.23;25.13;;;;;;;;;;5019043;28;20025;-78
2023/12/01 00:46:29;;;;;;;46.10;24.53;;;;;;;;;;5016616;28;20132;-77
2023/12/01 00:48:55;;;;;;;47.13;25.03;;;;;;;;;;5019558;28;20996;-78
2023/12/01 00:51:21;;;;;;;47.40;24.30;;;;;;;;;;5017991;28;20083;-77
2023/12/01 00:53:47;;;;;;;49.33;24.60;;;;;;;;;;5034187;28;20029;-78
2023/12/01 00:56:14;;;;;;;51.27;25.47;;;;;;;;;;5036265;28;20033;-80
2023/12/01 00:58:42;;;;;;;48.60;24.60;;;;;;;;;;5033317;28;20302;-81
2023/12/01 01:01:10;;;;;;;46.43;24.70;;;;;;;;;;5031050;28;20351;-79
2023/12/01 01:03:37;;;;;;;48.07;25.63;;;;;;;;;;5009882;28;20807;-79
2023/12/01 01:06:03;;;;;;;50.77;24.17;;;;;;;;;;5013691;28;20351;-79
2023/12/01 01:08:30;;;;;;;55.80;26.83;;;;;;;;;;5012280;28;20352;-78
2023/12/01 01:10:56;;;;;;;50.97;24.53;;;;;;;;;;5031741;28;20295;-81
2023/12/01 01:13:22;;;;;;;55.50;26.07;;;;;;;;;;5031635;28;20276;-80
2023/12/01 01:15:49;;;;;;;49.80;25.67;;;;;;;;;;5015261;28;20284;-79
2023/12/01 01:18:15;;;;;;;53.53;26.10;;;;;;;;;;5013219;28;20358;-78
2023/12/01 01:20:41;;;;;;;54.03;26.30;;;;;;;;;;5014365;28;20573;-78
2023/12/01 01:23:07;;;;;;;57.50;27.37;;;;;;;;;;5014226;28;20341;-80
2023/12/01 01:25:33;;;;;;;58.07;27.00;;;;;;;;;;5015315;28;20067;-78
2023/12/01 01:28:00;;;;;;;61.57;29.17;;;;;;;;;;5013993;28;20022;-78
2023/12/01 01:30:26;;;;;;;66.73;29.60;;;;;;;;;;5015469;28;20109;-80
2023/12/01 01:32:52;;;;;;;63.57;28.77;;;;;;;;;;5012385;28;21998;-79
2023/12/01 01:35:18;;;;;;;67.03;28.83;;;;;;;;;;5013181;28;20264;-77
2023/12/01 01:37:44;;;;;;;70.90;31.73;;;;;;;;;;5032620;28;20625;-79
2023/12/01 01:40:12;;;;;;;65.90;28.07;;;;;;;;;;5013910;28;20485;-78
2023/12/01 01:42:41;;;;;;;69.07;29.77;;;;;;;;;;5030868;28;20272;-78
2023/12/01 01:45:09;;;;;;;63.83;29.30;;;;;;;;;;5014070;28;20418;-81
2023/12/01 01:47:36;;;;;;;72.80;31.37;;;;;;;;;;5014994;28;20295;-81
2023/12/01 01:50:02;;;;;;;74.07;30.90;;;;;;;;;;5013953;28;20288;-78
2023/12/01 01:52:28;;;;;;;69.07;30.07;;;;;;;;;;5013629;28;20283;-83
2023/12/01 01:54:54;;;;;;;66.00;29.40;;;;;;;;;;5013119;28;20072;-81
2023/12/01 01:57:20;;;;;;;75.73;30.60;;;;;;;;;;5032317;28;20295;-80
2023/12/01 01:59:47;;;;;;;69.67;29.83;;;;;;;;;;5015369;28;20028;-78
2023/12/01 02:02:13;;;;;;;69.67;31.53;;;;;;;;;;5011745;28;20034;-79
2023/12/01 02:04:39;;;;;;;77.33;32.67;;;;;;;;;;5013088;28;20623;-79
2023/12/01 02:07:08;;;;;;;66.37;29.80;;;;;;;;;;5013154;28;20087;-80
2023/12/01 02:09:34;;;;;;;75.57;31.13;;;;;;;;;;5030356;28;20033;-79
2023/12/01 02:12:03;;;;;;;68.50;32.17;;;;;;;;;;5013287;28;20279;-78
2023/12/01 02:14:29;;;;;;;70.17;31.77;;;;;;;;;;5014850;28;20334;-78
2023/12/01 02:16:56;;;;;;;79.83;32.40;;;;;;;;;;5014598;28;20759;-77
2023/12/01 02:19:22;;;;;;;72.30;31.60;;;;;;;;;;5015315;28;20124;-78
2023/12/01 02:21:49;;;;;;;75.07;30.87;;;;;;;;;;5012055;28;20761;-79
2023/12/01 02:24:17;;;;;;;74.23;30.43;;;;;;;;;;5013644;28;20068;-79
2023/12/01 02:26:43;;;;;;;62.27;29.87;;;;;;;;;;5029083;28;20288;-80
2023/12/01 02:29:09;;;;;;;69.43;30.73;;;;;;;;;;5012444;28;20446;-79
2023/12/01 02:31:35;;;;;;;73.13;31.60;;;;;;;;;;5014025;28;20033;-82
2023/12/01 02:34:01;;;;;;;68.83;32.50;;;;;;;;;;5032839;28;20283;-81
2023/12/01 02:36:27;;;;;;;64.40;29.47;;;;;;;;;;5016844;28;21578;-80
2023/12/01 02:38:53;;;;;;;72.70;31.53;;;;;;;;;;5019009;28;20345;-80
2023/12/01 02:41:19;;;;;;;65.57;30.90;;;;;;;;;;5015209;28;20272;-79
2023/12/01 02:43:45;;;;;;;76.37;31.57;;;;;;;;;;5012729;28;20021;-78
2023/12/01 02:46:14;;;;;;;62.50;29.07;;;;;;;;;;5033120;28;20036;-79
2023/12/01 02:48:41;;;;;;;59.57;28.90;;;;;;;;;;5017199;28;20033;-83
2023/12/01 02:51:08;;;;;;;66.10;29.63;;;;;;;;;;5018655;28;20122;-78
2023/12/01 02:53:34;;;;;;;59.07;27.13;;;;;;;;;;5016056;28;20287;-82
2023/12/01 02:56:00;;;;;;;65.93;30.53;;;;;;;;;;5030268;28;20299;-79
2023/12/01 02:58:26;;;;;;;59.80;27.67;;;;;;;;;;5016950;28;20320;-79
2023/12/01 03:00:52;;;;;;;63.43;28.80;;;;;;;;;;5017421;28;20280;-79
2023/12/01 03:03:18;;;;;;;62.10;28.70;;;;;;;;;;5015449;28;20037;-79
2023/12/01 03:05:45;;;;;;;58.77;27.87;;;;;;;;;;5030047;28;20264;-79
2023/12/01 03:08:11;;;;;;;59.50;26.40;;;;;;;;;;5016724;28;20043;-82
2023/12/01 03:10:39;;;;;;;56.50;26.50;;;;;;;;;;5028326;28;20363;-77
2023/12/01 03:13:05;;;;;;;54.27;25.43;;;;;;;;;;5018992;28;20025;-78
2023/12/01 03:15:34;;;;;;;59.10;26.23;;;;;;;;;;5031864;28;20728;-83
2023/12/01 03:18:00;;;;;;;51.37;25.23;;;;;;;;;;5024956;28;20021;-82
2023/12/01 03:20:29;;;;;;;53.53;25.57;;;;;;;;;;5017217;28;20045;-78
2023/12/01 03:22:55;;;;;;;56.00;26.33;;;;;;;;;;5016759;28;20430;-77
2023/12/01 03:25:23;;;;;;;51.53;24.97;;;;;;;;;;5015848;28;20280;-78
2023/12/01 03:27:49;;;;;;;55.47;27.43;;;;;;;;;;5016448;28;20616;-78
2023/12/01 03:30:16;;;;;;;55.27;28.77;;;;;;;;;;5015422;28;20286;-83
2023/12/01 03:32:52;;;;;;;50.40;24.83;;;;;;;;;;5030950;28;20501;-77
2023/12/01 03:35:25;;;;;;;55.33;26.60;;;;;;;;;;5031451;28;21391;-78
2023/12/01 03:37:56;;;;;;;56.65;26.67;;;;;;;;;;5029374;28;20288;-79
2023/12/01 03:40:23;;;;;;;50.88;26.50;;;;;;;;;;5016701;28;20029;-79
2023/12/01 03:42:50;;;;;;;51.40;25.43;;;;;;;;;;5016549;28;20033;-79
2023/12/01 03:45:16;;;;;;;53.23;26.07;;;;;;;;;;5029516;28;20035;-80
2023/12/01 03:47:49;;;;;;;55.73;26.10;;;;;;;;;;5018010;28;20056;-81
2023/12/01 03:50:18;;;;;;;58.27;27.03;;;;;;;;;;5019561;28;20578;-80
2023/12/01 03:52:47;;;;;;;57.80;25.63;;;;;;;;;;5030613;28;20315;-80
2023/12/01 03:55:14;;;;;;;52.50;25.27;;;;;;;;;;5028764;28;20037;-80
2023/12/01 03:57:40;;;;;;;58.00;27.10;;;;;;;;;;5014677;28;20387;-78
2023/12/01 04:00:13;;;;;;;54.27;24.67;;;;;;;;;;5016826;28;20352;-78
2023/12/01 04:02:43;;;;;;;54.08;25.35;;;;;;;;;;5027624;28;20363;-80
2023/12/01 04:05:16;;;;;;;55.13;24.93;;;;;;;;;;5015983;28;20034;-79
2023/12/01 04:07:44;;;;;;;47.60;23.60;;;;;;;;;;5028532;28;20338;-79
2023/12/01 04:10:10;;;;;;;50.23;24.80;;;;;;;;;;5015933;28;20284;-78
2023/12/01 04:12:44;;;;;;;48.83;22.23;;;;;;;;;;5014000;28;20044;-80
2023/12/01 04:15:12;;;;;;;50.37;24.27;;;;;;;;;;5014274;28;20280;-79
2023/12/01 04:17:42;;;;;;;51.10;23.57;;;;;;;;;;5029956;28;20307;-79
2023/12/01 04:20:20;;;;;;;52.00;25.13;;;;;;;;;;5013033;28;20284;-78
2023/12/01 04:22:48;;;;;;;52.37;23.13;;;;;;;;;;5032328;28;20048;-78
2023/12/01 04:25:15;;;;;;;51.73;25.20;;;;;;;;;;5013350;28;20268;-79
2023/12/01 04:27:41;;;;;;;48.90;23.10;;;;;;;;;;5027964;28;21947;-78
2023/12/01 04:30:13;;;;;;;51.37;24.97;;;;;;;;;;5013410;28;20279;-78
2023/12/01 04:32:41;;;;;;;50.37;25.13;;;;;;;;;;5015106;28;20090;-79
2023/12/01 04:35:07;;;;;;;44.07;23.33;;;;;;;;;;5016416;28;20287;-78
2023/12/01 04:37:35;;;;;;;51.73;25.43;;;;;;;;;;5014803;28;20387;-78
2023/12/01 04:40:01;;;;;;;56.80;25.80;;;;;;;;;;5031405;28;20272;-77
2023/12/01 04:42:27;;;;;;;53.13;25.73;;;;;;;;;;5015317;28;20264;-79
2023/12/01 04:44:53;;;;;;;49.37;24.40;;;;;;;;;;5007988;28;20022;-79
2023/12/01 04:47:19;;;;;;;45.87;22.57;;;;;;;;;;5015492;28;20120;-79
2023/12/01 04:49:46;;;;;;;58.47;26.57;;;;;;;;;;5009666;28;20643;-79
2023/12/01 04:52:12;;;;;;;52.30;24.50;;;;;;;;;;5034739;28;20017;-78
2023/12/01 04:54:38;;;;;;;45.90;23.53;;;;;;;;;;5035695;28;20339;-79
2023/12/01 04:57:04;;;;;;;54.23;25.63;;;;;;;;;;5027722;28;20025;-80
2023/12/01 04:59:30;;;;;;;54.57;26.47;;;;;;;;;;5024401;28;20409;-79
2023/12/01 05:01:56;;;;;;;54.57;26.23;;;;;;;;;;5006005;28;20033;-78
2023/12/01 05:04:22;;;;;;;47.80;23.73;;;;;;;;;;5035830;28;20052;-80
2023/12/01 05:06:52;;;;;;;50.03;24.00;;;;;;;;;;5018307;28;20300;-79
2023/12/01 05:09:21;;;;;;;57.03;25.70;;;;;;;;;;5019795;28;20036;-79
2023/12/01 05:11:49;;;;;;;55.23;25.40;;;;;;;;;;5028340;28;20337;-79
2023/12/01 05:14:16;;;;;;;49.97;24.20;;;;;;;;;;5011428;28;20056;-79
2023/12/01 05:16:42;;;;;;;46.93;24.63;;;;;;;;;;5007799;28;20713;-81
2023/12/01 05:19:08;;;;;;;54.03;26.03;;;;;;;;;;5012771;28;20276;-80
2023/12/01 05:21:34;;;;;;;52.97;24.20;;;;;;;;;;5015852;28;20017;-82
2023/12/01 05:24:00;;;;;;;57.97;25.50;;;;;;;;;;5004349;28;20101;-78
2023/12/01 05:26:26;;;;;;;54.90;26.07;;;;;;;;;;5018801;28;20038;-79
2023/12/01 05:28:52;;;;;;;53.13;24.33;;;;;;;;;;5011428;28;20032;-81
2023/12/01 05:31:18;;;;;;;58.10;25.37;;;;;;;;;;5014675;28;20061;-80
2023/12/01 05:33:46;;;;;;;53.67;25.27;;;;;;;;;;5016024;28;20057;-79
2023/12/01 05:36:15;;;;;;;53.90;25.77;;;;;;;;;;5008119;28;20036;-81
2023/12/01 05:38:42;;;;;;;51.30;24.37;;;;;;;;;;5016863;28;20290;-79
2023/12/01 05:41:09;;;;;;;51.57;24.87;;;;;;;;;;5034588;28;20616;-80
2023/12/01 05:43:35;;;;;;;51.70;24.80;;;;;;;;;;5027500;28;20265;-79
2023/12/01 05:46:01;;;;;;;47.30;22.10;;;;;;;;;;5016664;28;20648;-82
2023/12/01 05:48:29;;;;;;;51.67;23.17;;;;;;;;;;5007272;28;20281;-78
2023/12/01 05:50:58;;;;;;;45.67;23.10;;;;;;;;;;5016498;28;20044;-81
2023/12/01 05:53:24;;;;;;;46.10;23.00;;;;;;;;;;5017955;28;20268;-80
2023/12/01 05:55:52;;;;;;;49.10;23.40;;;;;;;;;;5031671;28;20328;-78
2023/12/01 05:58:21;;;;;;;50.90;24.63;;;;;;;;;;5028005;28;20054;-77
2023/12/01 06:00:50;;;;;;;50.03;22.83;;;;;;;;;;5024929;28;20362;-80
2023/12/01 06:03:17;;;;;;;49.07;24.73;;;;;;;;;;5019788;28;20269;-80
2023/12/01 06:05:43;;;;;;;42.27;21.40;;;;;;;;;;5018048;28;20359;-79
2023/12/01 06:08:09;;;;;;;48.93;24.10;;;;;;;;;;5009779;28;20792;-81
2023/12/01 06:10:35;;;;;;;45.17;22.37;;;;;;;;;;5014470;28;20129;-79
2023/12/01 06:13:02;;;;;;;47.20;22.87;;;;;;;;;;5038982;28;20318;-80
2023/12/01 06:15:30;;;;;;;45.53;22.93;;;;;;;;;;5039198;28;20124;-81
2023/12/01 06:17:57;;;;;;;48.70;23.00;;;;;;;;;;5014892;28;20311;-79
2023/12/01 06:20:24;;;;;;;42.70;21.60;;;;;;;;;;5018142;28;20269;-80
2023/12/01 06:22:50;;;;;;;51.73;23.83;;;;;;;;;;5017494;28;20323;-79
2023/12/01 06:25:16;;;;;;;47.20;22.80;;;;;;;;;;5017942;28;20338;-78
2023/12/01 06:27:45;;;;;;;43.83;22.37;;;;;;;;;;5015789;28;20304;-83
2023/12/01 06:30:12;;;;;;;42.40;22.00;;;;;;;;;;5028267;28;20283;-80
2023/12/01 06:32:39;;;;;;;48.30;22.87;;;;;;;;;;5018045;28;20276;-77
2023/12/01 06:35:06;;;;;;;44.43;20.83;;;;;;;;;;5030238;28;20276;-81
2023/12/01 06:37:32;;;;;;;41.10;21.90;;;;;;;;;;5032820;28;20316;-79
2023/12/01 06:39:58;;;;;;;46.60;22.43;;;;;;;;;;5018339;28;20315;-79
2023/12/01 06:42:24;;;;;;;40.97;21.03;;;;;;;;;;5015989;28;20033;-77
2023/12/01 06:44:50;;;;;;;40.27;20.40;;;;;;;;;;5034985;28;20049;-80
2023/12/01 06:47:16;;;;;;;37.53;19.47;;;;;;;;;;5017666;28;20311;-81
2023/12/01 06:49:43;;;;;;;38.97;18.20;;;;;;;;;;5017257;28;20049;-78
2023/12/01 06:52:09;;;;;;;32.60;16.73;;;;;;;;;;5019803;28;20288;-79
2023/12/01 06:54:35;;;;;;;36.37;17.27;;;;;;;;;;5016303;28;20037;-77
2023/12/01 06:57:03;;;;;;;33.30;17.30;;;;;;;;;;5020301;28;20029;-80
2023/12/01 06:59:29;;;;;;;33.40;16.40;;;;;;;;;;5017390;28;20288;-78
2023/12/01 07:01:58;;;;;;;32.87;16.17;;;;;;;;;;5033863;28;20728;-78
2023/12/01 07:04:24;;;;;;;33.50;15.30;;;;;;;;;;5014739;28;22143;-80
2023/12/01 07:06:50;;;;;;;32.07;15.07;;;;;;;;;;5016930;28;20310;-78
2023/12/01 07:09:19;;;;;;;33.10;16.17;;;;;;;;;;5016927;28;20268;-77
2023/12/01 07:11:46;;;;;;;28.07;13.93;;;;;;;;;;5034084;28;20341;-80
2023/12/01 07:14:12;;;;;;;27.43;14.43;;;;;;;;;;5017782;28;20284;-79
2023/12/01 07:16:42;;;;;;;28.20;14.03;;;;;;;;;;5034824;28;20849;-79
2023/12/01 07:19:08;;;;;;;32.70;14.13;;;;;;;;;;5016096;28;20307;-79
2023/12/01 07:21:36;;;;;;;25.97;13.90;;;;;;;;;;5017561;28;20264;-79
2023/12/01 07:24:04;;;;;;;24.50;12.43;;;;;;;;;;5017622;28;20283;-79
2023/12/01 07:26:32;;;;;;;21.93;12.07;;;;;;;;;;5017321;28;20272;-78
2023/12/01 07:28:58;;;;;;;24.67;12.93;;;;;;;;;;5031996;28;20276;-79
2023/12/01 07:31:24;;;;;;;24.73;13.30;;;;;;;;;;5016111;28;20283;-78
2023/12/01 07:33:50;;;;;;;24.10;11.33;;;;;;;;;;5033100;28;20029;-79
2023/12/01 07:36:16;;;;;;;24.27;12.03;;;;;;;;;;5017352;28;20072;-80
2023/12/01 07:38:42;;;;;;;25.33;10.30;;;;;;;;;;5016900;28;20462;-79
2023/12/01 07:41:12;;;;;;;23.63;10.30;;;;;;;;;;5016029;28;20034;-79
2023/12/01 07:43:40;;;;;;;17.73;9.03;;;;;;;;;;5014744;28;20091;-82
2023/12/01 07:46:06;;;;;;;21.07;10.77;;;;;;;;;;5015115;28;20272;-78
2023/12/01 07:48:34;;;;;;;16.23;9.10;;;;;;;;;;5017024;28;20325;-78
2023/12/01 07:51:00;;;;;;;18.37;9.50;;;;;;;;;;5017727;28;20307;-80
2023/12/01 07:53:25;;;;;;;16.27;8.53;;;;;;;;;;5014898;28;20037;-79
2023/12/01 07:55:51;;;;;;;20.60;10.90;;;;;;;;;;5015620;28;20037;-77
2023/12/01 07:58:17;;;;;;;16.10;9.17;;;;;;;;;;5033454;28;20083;-79
2023/12/01 08:00:45;;;;;;;19.10;9.77;;;;;;;;;;5016133;28;20384;-78
2023/12/01 08:03:11;;;;;;;18.80;10.00;;;;;;;;;;5015811;28;20025;-80
2023/12/01 08:05:39;;;;;;;21.33;10.43;;;;;;;;;;5014798;28;20276;-79
2023/12/01 08:08:05;;;;;;;21.17;11.17;;;;;;;;;;5016039;28;20322;-79
2023/12/01 08:10:31;;;;;;;23.07;12.20;;;;;;;;;;5014262;28;20283;-79
2023/12/01 08:12:57;;;;;;;20.60;11.23;;;;;;;;;;5032179;28;20284;-78
2023/12/01 08:15:24;;;;;;;19.10;9.73;;;;;;;;;;5014909;28;20072;-78
2023/12/01 08:17:50;;;;;;;20.30;10.57;;;;;;;;;;5016106;28;20295;-80
2023/12/01 08:20:19;;;;;;;21.03;10.23;;;;;;;;;;5015484;28;20612;-78
2023/12/01 08:22:46;;;;;;;17.33;8.70;;;;;;;;;;5017189;28;20118;-78
2023/12/01 08:25:15;;;;;;;17.30;9.43;;;;;;;;;;5014593;28;20290;-79
2023/12/01 08:27:41;;;;;;;16.50;8.77;;;;;;;;;;5014564;28;20276;-80
2023/12/01 08:30:08;;;;;;;18.77;8.60;;;;;;;;;;5014581;28;20326;-77
2023/12/01 08:32:34;;;;;;;17.60;8.63;;;;;;;;;;5011253;28;20280;-79
2023/12/01 08:35:01;;;;;;;12.83;7.30;;;;;;;;;;5013550;28;20356;-81
2023/12/01 08:37:27;;;;;;;16.53;9.00;;;;;;;;;;5014622;28;20291;-79
2023/12/01 08:39:53;;;;;;;13.10;7.07;;;;;;;;;;5013836;28;20295;-78
2023/12/01 08:42:19;;;;;;;17.13;7.83;;;;;;;;;;5030626;28;20335;-78
2023/12/01 08:44:45;;;;;;;17.27;8.60;;;;;;;;;;5013362;28;21974;-78
2023/12/01 08:47:19;;;;;;;14.97;8.10;;;;;;;;;;5012996;28;20064;-78
2023/12/01 08:49:45;;;;;;;12.70;8.30;;;;;;;;;;5014448;28;20284;-79
2023/12/01 08:52:11;;;;;;;16.80;7.87;;;;;;;;;;5030116;28;20330;-78
2023/12/01 08:54:37;;;;;;;16.23;8.57;;;;;;;;;;5028979;28;20021;-80
2023/12/01 08:57:06;;;;;;;17.13;8.40;;;;;;;;;;5013989;28;20541;-79
2023/12/01 08:59:32;;;;;;;14.93;8.43;;;;;;;;;;5028622;28;20112;-78
2023/12/01 09:01:58;;;;;;;15.27;7.60;;;;;;;;;;5031143;28;20316;-78
2023/12/01 09:04:23;;;;;;;14.87;7.40;;;;;;;;;;5012009;28;20037;-77
2023/12/01 09:06:49;;;;;;;15.27;8.53;;;;;;;;;;5015596;28;20029;-79
2023/12/01 09:09:15;;;;;;;13.43;7.57;;;;;;;;;;5011218;28;20061;-77
2023/12/01 09:11:41;;;;;;;13.70;7.87;;;;;;;;;;5026308;28;20033;-78
2023/12/01 09:14:07;;;;;;;14.57;7.53;;;;;;;;;;5030742;28;20025;-78
2023/12/01 09:16:33;;;;;;;16.03;8.50;;;;;;;;;;5014713;28;20095;-77
2023/12/01 09:18:59;;;;;;;15.47;8.20;;;;;;;;;;5032398;28;20284;-78
2023/12/01 09:21:25;;;;;;;13.83;7.80;;;;;;;;;;5030081;28;20576;-78
2023/12/01 09:23:52;;;;;;;15.53;8.17;;;;;;;;;;5032851;28;20370;-79
2023/12/01 09:26:18;;;;;;;15.60;8.63;;;;;;;;;;5015758;28;20355;-78
2023/12/01 09:28:44;;;;;;;19.70;9.10;;;;;;;;;;5013275;28;20287;-79
2023/12/01 09:31:10;;;;;;;19.40;8.90;;;;;;;;;;5012035;28;20275;-77
2023/12/01 09:33:40;;;;;;;19.73;9.50;;;;;;;;;;5016021;28;20751;-79
2023/12/01 09:36:06;;;;;;;17.67;9.53;;;;;;;;;;5014351;28;20128;-80
2023/12/01 09:38:32;;;;;;;14.80;8.90;;;;;;;;;;5015181;28;20029;-77
2023/12/01 09:40:58;;;;;;;16.60;9.17;;;;;;;;;;5015460;28;20056;-78
2023/12/01 09:43:24;;;;;;;17.43;9.17;;;;;;;;;;5015483;28;20025;-80
2023/12/01 09:45:50;;;;;;;15.53;9.30;;;;;;;;;;5040021;28;20051;-78
2023/12/01 09:48:19;;;;;;;16.33;9.30;;;;;;;;;;5021919;28;20044;-79
2023/12/01 09:50:45;;;;;;;13.80;8.00;;;;;;;;;;5022240;28;20041;-80
2023/12/01 09:53:11;;;;;;;15.37;9.00;;;;;;;;;;5021380;28;20029;-79
2023/12/01 09:55:37;;;;;;;14.53;8.10;;;;;;;;;;5020632;28;20033;-78
2023/12/01 09:58:04;;;;;;;15.33;8.27;;;;;;;;;;5015424;28;20048;-78
2023/12/01 10:00:32;;;;;;;14.93;7.47;;;;;;;;;;5017210;28;20143;-78
2023/12/01 10:02:58;;;;;;;12.80;8.07;;;;;;;;;;5021136;28;20576;-78
2023/12/01 10:05:25;;;;;;;19.27;8.23;;;;;;;;;;5038610;28;20049;-77
2023/12/01 10:07:51;;;;;;;16.30;8.10;;;;;;;;;;5021233;28;20021;-80
2023/12/01 10:10:27;;;;;;;15.27;8.70;;;;;;;;;;5019464;28;20338;-77
2023/12/01 10:12:56;;;;;;;16.67;8.30;;;;;;;;;;5035006;28;20589;-78
2023/12/01 10:15:24;;;;;;;18.33;8.40;;;;;;;;;;5036707;28;20083;-77
2023/12/01 10:17:53;;;;;;;16.73;8.90;;;;;;;;;;5020202;28;20033;-78
2023/12/01 10:20:21;;;;;;;16.37;8.17;;;;;;;;;;5021065;28;20051;-77
2023/12/01 10:22:50;;;;;;;18.13;9.43;;;;;;;;;;5020689;28;20292;-77
2023/12/01 10:25:16;;;;;;;14.33;7.73;;;;;;;;;;5037789;28;20438;-78
2023/12/01 10:27:42;;;;;;;15.73;8.33;;;;;;;;;;5034101;28;20030;-78
2023/12/01 10:30:15;;;;;;;15.80;9.17;;;;;;;;;;5021123;28;20094;-79
2023/12/01 10:32:44;;;;;;;14.30;8.18;;;;;;;;;;5019018;28;20026;-78
2023/12/01 10:35:10;;;;;;;16.90;8.70;;;;;;;;;;5020353;28;20082;-78
2023/12/01 10:37:37;;;;;;;13.57;8.80;;;;;;;;;;5014326;28;20033;-79
2023/12/01 10:40:05;;;;;;;13.23;7.83;;;;;;;;;;5035923;28;20112;-79
2023/12/01 10:42:36;;;;;;;12.73;6.40;;;;;;;;;;5015323;28;20088;-80
2023/12/01 10:45:03;;;;;;;13.83;6.80;;;;;;;;;;5018659;28;20021;-78
2023/12/01 10:47:29;;;;;;;13.77;6.67;;;;;;;;;;5012736;28;20407;-77
2023/12/01 10:49:55;;;;;;;13.93;7.97;;;;;;;;;;5017314;28;20040;-78
2023/12/01 10:52:23;;;;;;;12.33;6.80;;;;;;;;;;5023884;28;20033;-80
2023/12/01 10:54:49;;;;;;;13.87;6.67;;;;;;;;;;5022087;28;20026;-78
2023/12/01 10:57:21;;;;;;;13.67;6.70;;;;;;;;;;5018729;28;20033;-80
2023/12/01 10:59:51;;;;;;;14.27;7.32;;;;;;;;;;5030579;28;20096;-78
2023/12/01 11:02:18;;;;;;;11.83;6.83;;;;;;;;;;5020706;28;20116;-78
2023/12/01 11:04:47;;;;;;;14.10;7.03;;;;;;;;;;5020498;28;20060;-78
2023/12/01 11:07:32;;;;;;;15.87;7.07;;;;;;;;;;5008288;28;20029;-78
2023/12/01 11:09:58;;;;;;;12.07;6.30;;;;;;;;;;5028649;28;20072;-78
2023/12/01 11:12:33;;;;;;;11.73;5.57;;;;;;;;;;5013282;28;20057;-79
2023/12/01 11:15:07;;;;;;;11.80;5.40;;;;;;;;;;5018214;28;20031;-79
2023/12/01 11:17:33;;;;;;;6.73;4.43;;;;;;;;;;5020238;28;20041;-79
2023/12/01 11:19:59;;;;;;;11.07;4.43;;;;;;;;;;5019665;28;20041;-77
2023/12/01 11:22:27;;;;;;;8.80;5.00;;;;;;;;;;5015483;28;20426;-78
2023/12/01 11:24:53;;;;;;;8.73;4.50;;;;;;;;;;5018729;28;20037;-80
2023/12/01 11:27:19;;;;;;;7.30;3.80;;;;;;;;;;5020594;28;20361;-78
2023/12/01 11:29:59;;;;;;;13.70;4.50;;;;;;;;;;5019878;28;20033;-78
2023/12/01 11:32:33;;;;;;;7.43;4.20;;;;;;;;;;5020448;28;20132;-79
2023/12/01 11:35:06;;;;;;;8.17;4.70;;;;;;;;;;5020385;28;20037;-79
2023/12/01 11:37:55;;;;;;;7.20;4.20;;;;;;;;;;5037035;28;20033;-79
2023/12/01 11:40:22;;;;;;;8.47;4.80;;;;;;;;;;5007222;28;20048;-78
2023/12/01 11:42:48;;;;;;;7.37;4.03;;;;;;;;;;5015498;28;20025;-79
2023/12/01 11:45:15;;;;;;;6.97;4.80;;;;;;;;;;5017425;28;20072;-78
2023/12/01 11:47:41;;;;;;;9.57;5.17;;;;;;;;;;5036219;28;20151;-79
2023/12/01 11:50:08;;;;;;;9.93;4.57;;;;;;;;;;5019837;28;20098;-79
2023/12/01 11:52:34;;;;;;;12.33;5.80;;;;;;;;;;5019150;28;20048;-80
2023/12/01 11:55:01;;;;;;;8.00;4.30;;;;;;;;;;5020012;28;20338;-79
2023/12/01 11:57:27;;;;;;;14.97;6.03;;;;;;;;;;5019289;28;20138;-79
2023/12/01 11:59:56;;;;;;;7.40;4.30;;;;;;;;;;5019408;28;20484;-78
2023/12/01 12:02:30;;;;;;;10.53;4.67;;;;;;;;;;5019004;28;20364;-79
2023/12/01 12:05:00;;;;;;;7.33;4.47;;;;;;;;;;5019594;28;20021;-79
2023/12/01 12:07:27;;;;;;;8.23;4.83;;;;;;;;;;5018652;28;20029;-80
2023/12/01 12:09:56;;;;;;;10.40;5.13;;;;;;;;;;5012099;28;20030;-79
2023/12/01 12:12:22;;;;;;;10.97;5.63;;;;;;;;;;5026720;28;20029;-80
2023/12/01 12:14:51;;;;;;;10.40;4.53;;;;;;;;;;5009989;28;20029;-78
2023/12/01 12:17:18;;;;;;;8.37;5.00;;;;;;;;;;5021417;28;20034;-78
2023/12/01 12:19:47;;;;;;;10.67;5.23;;;;;;;;;;5016145;28;20061;-78
2023/12/01 12:22:14;;;;;;;9.70;6.10;;;;;;;;;;5015949;28;20112;-78
2023/12/01 12:24:43;;;;;;;14.53;6.73;;;;;;;;;;5016868;28;20021;-78
2023/12/01 12:27:09;;;;;;;9.70;6.20;;;;;;;;;;5024658;28;20430;-78
2023/12/01 12:29:35;;;;;;;9.47;5.67;;;;;;;;;;5011866;28;20366;-78
2023/12/01 12:32:01;;;;;;;11.20;6.57;;;;;;;;;;5016504;28;20029;-79
2023/12/01 12:34:27;;;;;;;10.70;6.17;;;;;;;;;;5016815;28;20584;-78
2023/12/01 12:36:53;;;;;;;10.37;5.97;;;;;;;;;;5011339;28;20083;-80
2023/12/01 12:39:23;;;;;;;10.03;6.30;;;;;;;;;;5012192;28;20034;-79
2023/12/01 12:41:53;;;;;;;11.60;6.43;;;;;;;;;;5016853;28;20033;-78
2023/12/01 12:44:19;;;;;;;10.53;6.50;;;;;;;;;;5016815;28;20029;-78
2023/12/01 12:46:59;;;;;;;18.13;7.20;;;;;;;;;;5033724;28;20333;-78
2023/12/01 12:49:26;;;;;;;12.57;6.93;;;;;;;;;;5023767;28;20044;-78
2023/12/01 12:51:52;;;;;;;13.77;7.53;;;;;;;;;;5009482;28;20025;-79
2023/12/01 12:54:18;;;;;;;15.73;7.53;;;;;;;;;;5029246;28;20029;-79
2023/12/01 12:56:45;;;;;;;10.10;5.90;;;;;;;;;;5015881;28;20454;-78
2023/12/01 12:59:12;;;;;;;13.00;6.40;;;;;;;;;;5012654;28;20037;-77
2023/12/01 13:01:38;;;;;;;11.37;6.43;;;;;;;;;;5015846;28;20036;-78
2023/12/01 13:04:04;;;;;;;12.10;6.97;;;;;;;;;;5016308;28;20025;-78
2023/12/01 13:06:31;;;;;;;14.60;7.60;;;;;;;;;;5016087;28;20110;-77
2023/12/01 13:08:59;;;;;;;11.23;6.83;;;;;;;;;;5016032;28;20183;-79
2023/12/01 13:11:25;;;;;;;13.10;7.17;;;;;;;;;;5011607;28;20358;-78
2023/12/01 13:13:51;;;;;;;10.83;6.07;;;;;;;;;;5015873;28;20029;-80
2023/12/01 13:16:17;;;;;;;9.33;5.37;;;;;;;;;;5014881;28;20033;-79
2023/12/01 13:18:45;;;;;;;10.97;6.47;;;;;;;;;;5015438;28;20445;-80
2023/12/01 13:21:11;;;;;;;11.63;7.33;;;;;;;;;;5010901;28;20120;-80
2023/12/01 13:23:38;;;;;;;11.93;6.73;;;;;;;;;;5032857;28;20049;-78
2023/12/01 13:26:04;;;;;;;11.40;6.40;;;;;;;;;;5015455;28;20025;-79
2023/12/01 13:28:32;;;;;;;11.43;6.97;;;;;;;;;;5032747;28;20966;-79
2023/12/01 13:30:59;;;;;;;11.50;6.73;;;;;;;;;;5015912;28;20288;-80
2023/12/01 13:33:27;;;;;;;10.33;6.43;;;;;;;;;;5032688;28;20287;-78
2023/12/01 13:35:53;;;;;;;11.97;6.60;;;;;;;;;;5011940;28;20094;-78
2023/12/01 13:38:19;;;;;;;12.43;6.93;;;;;;;;;;5015277;28;20477;-79
2023/12/01 13:40:45;;;;;;;11.90;6.73;;;;;;;;;;5015806;28;20021;-78
2023/12/01 13:43:12;;;;;;;13.97;7.67;;;;;;;;;;5015153;28;20048;-79
2023/12/01 13:45:41;;;;;;;13.27;7.17;;;;;;;;;;5032129;28;20488;-79
2023/12/01 13:48:07;;;;;;;12.37;7.27;;;;;;;;;;5009364;28;20283;-79
2023/12/01 13:50:33;;;;;;;15.50;7.07;;;;;;;;;;5014126;28;20362;-78
2023/12/01 13:52:59;;;;;;;14.83;7.87;;;;;;;;;;5015541;28;20215;-79
2023/12/01 13:55:25;;;;;;;15.63;8.00;;;;;;;;;;5013870;28;20312;-81
2023/12/01 13:57:51;;;;;;;15.60;7.30;;;;;;;;;;5015095;28;20099;-78
2023/12/01 14:00:17;;;;;;;15.10;7.17;;;;;;;;;;5032836;28;20022;-79
2023/12/01 14:02:44;;;;;;;14.57;7.27;;;;;;;;;;5014039;28;20121;-80
2023/12/01 14:05:11;;;;;;;14.90;7.80;;;;;;;;;;5015236;28;20045;-79
2023/12/01 14:07:37;;;;;;;16.20;8.13;;;;;;;;;;5014659;28;20387;-77
2023/12/01 14:10:05;;;;;;;15.37;7.93;;;;;;;;;;5014555;28;20383;-80
2023/12/01 14:12:34;;;;;;;15.07;8.60;;;;;;;;;;5013392;28;20124;-78
2023/12/01 14:15:00;;;;;;;18.33;8.47;;;;;;;;;;5013518;28;20437;-80
2023/12/01 14:17:26;;;;;;;20.73;9.23;;;;;;;;;;5031352;28;20083;-79
2023/12/01 14:19:52;;;;;;;19.40;8.20;;;;;;;;;;5012752;28;20285;-79
2023/12/01 14:22:20;;;;;;;18.03;8.33;;;;;;;;;;5015225;28;20292;-79